createdAt,value
2018-02-27T00:02:23.671Z,46.25
2018-02-27T00:04:49.651Z,46.57
2018-02-27T00:07:15.611Z,46.40
2018-02-27T00:09:43.116Z,47.15
2018-02-27T00:12:09.072Z,47.03
2018-02-27T00:14:35.033Z,47.13
2018-02-27T00:17:01.004Z,46.62
2018-02-27T00:19:28.039Z,46.67
2018-02-27T00:21:53.983Z,46.65
2018-02-27T00:24:19.938Z,46.59
2018-02-27T00:26:45.915Z,47.34
2018-02-27T00:29:11.862Z,47.08
2018-02-27T00:31:37.806Z,47.87
2018-02-27T00:34:03.778Z,47.38
2018-02-27T00:36:29.735Z,47.38
2018-02-27T00:38:55.668Z,47.76
2018-02-27T00:41:21.634Z,47.34
2018-02-27T00:43:47.596Z,47.73
2018-02-27T00:46:13.532Z,47.90
2018-02-27T00:48:39.469Z,46.89
2018-02-27T00:51:05.426Z,47.82
2018-02-27T00:53:31.378Z,48.33
2018-02-27T00:55:57.321Z,47.43
2018-02-27T00:58:23.295Z,47.16
2018-02-27T01:00:49.249Z,48.06
2018-02-27T01:03:15.193Z,49.39
2018-02-27T01:05:41.136Z,48.79
2018-02-27T01:08:07.080Z,48.61
2018-02-27T01:10:33.030Z,48.96
2018-02-27T01:12:59.016Z,48.59
2018-02-27T01:15:24.974Z,49.01
2018-02-27T01:17:50.912Z,48.04
2018-02-27T01:20:16.838Z,47.88
2018-02-27T01:22:42.766Z,48.62
2018-02-27T01:25:08.702Z,48.42
2018-02-27T01:27:34.662Z,48.39
2018-02-27T01:30:00.630Z,48.28
2018-02-27T01:32:26.600Z,47.97
2018-02-27T01:34:52.546Z,47.66
2018-02-27T01:37:18.494Z,46.61
2018-02-27T01:39:44.458Z,48.45
2018-02-27T01:42:10.468Z,46.30
2018-02-27T01:44:36.426Z,47.64
2018-02-27T01:47:02.412Z,47.85
2018-02-27T01:49:28.390Z,48.99
2018-02-27T01:51:54.322Z,48.21
2018-02-27T01:54:20.270Z,48.27
2018-02-27T01:56:46.218Z,48.64
2018-02-27T01:59:12.162Z,48.29
2018-02-27T02:01:38.138Z,49.56
2018-02-27T02:04:04.079Z,50.24
2018-02-27T02:06:30.096Z,49.58
2018-02-27T02:08:56.082Z,49.55
2018-02-27T02:11:22.024Z,48.32
2018-02-27T02:13:47.980Z,49.12
2018-02-27T02:16:13.924Z,48.91
2018-02-27T02:18:39.890Z,48.40
2018-02-27T02:21:05.848Z,48.89
2018-02-27T02:23:31.834Z,49.06
2018-02-27T02:25:57.780Z,47.78
2018-02-27T02:28:23.724Z,48.19
2018-02-27T02:30:49.662Z,48.43
2018-02-27T02:33:15.631Z,48.84
2018-02-27T02:35:41.583Z,48.51
2018-02-27T02:38:07.562Z,48.37
2018-02-27T02:40:33.486Z,49.04
2018-02-27T02:42:59.458Z,48.70
2018-02-27T02:45:25.453Z,49.36
2018-02-27T02:47:51.472Z,48.96
2018-02-27T02:50:17.422Z,49.83
2018-02-27T02:52:43.362Z,48.76
2018-02-27T02:55:09.312Z,47.63
2018-02-27T02:57:35.286Z,49.03
2018-02-27T03:00:01.231Z,48.61
2018-02-27T03:02:27.174Z,48.29
2018-02-27T03:04:53.120Z,48.11
2018-02-27T03:07:19.063Z,48.25
2018-02-27T03:09:45.002Z,48.51
2018-02-27T03:12:10.933Z,49.00
2018-02-27T03:14:36.919Z,48.52
2018-02-27T03:17:03.226Z,48.86
2018-02-27T03:19:29.168Z,49.44
2018-02-27T03:21:55.196Z,48.77
2018-02-27T03:24:21.134Z,49.38
2018-02-27T03:26:47.065Z,50.21
2018-02-27T03:29:13.014Z,50.06
2018-02-27T03:31:38.954Z,49.36
2018-02-27T03:34:04.940Z,49.51
2018-02-27T03:36:30.867Z,48.94
2018-02-27T03:38:56.827Z,48.57
2018-02-27T03:41:22.775Z,49.04
2018-02-27T03:43:48.759Z,49.84
2018-02-27T03:46:14.729Z,48.84
2018-02-27T03:48:40.685Z,48.11
2018-02-27T03:51:06.656Z,48.72
2018-02-27T03:53:32.587Z,48.87
2018-02-27T03:55:58.582Z,48.17
2018-02-27T03:58:24.531Z,48.41
2018-02-27T04:00:50.451Z,48.52
2018-02-27T04:03:16.410Z,47.97
2018-02-27T04:05:42.351Z,48.39
2018-02-27T04:08:08.322Z,48.19
2018-02-27T04:10:34.301Z,48.95
2018-02-27T04:13:00.263Z,48.88
2018-02-27T04:15:26.255Z,48.03
2018-02-27T04:17:52.240Z,47.74
2018-02-27T04:20:18.243Z,47.89
2018-02-27T04:22:44.197Z,48.50
2018-02-27T04:25:10.171Z,48.92
2018-02-27T04:27:36.134Z,48.41
2018-02-27T04:30:02.085Z,48.47
2018-02-27T04:32:28.040Z,48.63
2018-02-27T04:34:54.001Z,49.43
2018-02-27T04:37:19.963Z,49.09
2018-02-27T04:39:45.927Z,49.33
2018-02-27T04:42:11.877Z,48.98
2018-02-27T04:44:37.907Z,48.90
2018-02-27T04:47:03.859Z,49.20
2018-02-27T04:49:29.793Z,49.78
2018-02-27T04:51:55.782Z,48.80
2018-02-27T04:54:21.791Z,49.70
2018-02-27T04:56:47.751Z,48.30
2018-02-27T04:59:13.689Z,50.03
2018-02-27T05:01:39.668Z,50.07
2018-02-27T05:04:05.619Z,49.36
2018-02-27T05:06:31.571Z,50.41
2018-02-27T05:08:57.525Z,51.31
2018-02-27T05:11:23.521Z,50.72
2018-02-27T05:13:49.463Z,51.62
2018-02-27T05:16:15.430Z,49.67
2018-02-27T05:18:41.387Z,50.17
2018-02-27T05:21:07.327Z,50.39
2018-02-27T05:23:33.276Z,51.21
2018-02-27T05:25:59.244Z,50.61
2018-02-27T05:28:25.223Z,50.96
2018-02-27T05:30:51.178Z,49.89
2018-02-27T05:33:17.143Z,50.08
2018-02-27T05:35:43.079Z,49.75
2018-02-27T05:38:09.056Z,49.76
2018-02-27T05:40:35.025Z,51.16
2018-02-27T05:43:01.007Z,50.47
2018-02-27T05:45:27.067Z,50.70
2018-02-27T05:47:53.053Z,50.14
2018-02-27T05:50:19.129Z,50.32
2018-02-27T05:52:45.095Z,50.96
2018-02-27T05:55:11.077Z,50.35
2018-02-27T05:57:37.062Z,49.99
2018-02-27T06:00:03.032Z,50.40
2018-02-27T06:02:28.980Z,51.11
2018-02-27T06:04:54.979Z,51.00
2018-02-27T06:07:20.937Z,51.33
2018-02-27T06:09:46.899Z,50.67
2018-02-27T06:12:12.886Z,49.69
2018-02-27T06:14:38.855Z,51.08
2018-02-27T06:17:04.820Z,51.11
2018-02-27T06:19:31.115Z,51.44
2018-02-27T06:21:57.114Z,50.93
2018-02-27T06:24:23.094Z,49.64
2018-02-27T06:26:49.028Z,50.15
2018-02-27T06:29:14.989Z,50.85
2018-02-27T06:31:40.975Z,51.11
2018-02-27T06:34:06.937Z,50.15
2018-02-27T06:36:32.974Z,50.72
2018-02-27T06:38:58.963Z,50.64
2018-02-27T06:41:24.958Z,50.32
2018-02-27T06:43:50.939Z,49.96
2018-02-27T06:46:16.912Z,48.76
2018-02-27T06:48:42.887Z,48.43
2018-02-27T06:51:10.006Z,47.95
2018-02-27T06:53:36.049Z,47.74
2018-02-27T06:56:01.999Z,46.86
2018-02-27T06:58:27.956Z,46.50
2018-02-27T07:00:53.902Z,46.97
2018-02-27T07:03:19.846Z,49.76
2018-02-27T07:05:45.776Z,47.72
2018-02-27T07:08:11.764Z,48.05
2018-02-27T07:10:37.702Z,44.59
2018-02-27T07:13:03.654Z,46.98
2018-02-27T07:15:29.611Z,46.88
2018-02-27T07:17:55.608Z,45.92
2018-02-27T07:20:21.590Z,45.57
2018-02-27T07:22:47.542Z,44.83
2018-02-27T07:25:13.532Z,43.79
2018-02-27T07:27:39.502Z,45.50
2018-02-27T07:30:05.455Z,45.32
2018-02-27T07:32:31.399Z,45.05
2018-02-27T07:34:57.403Z,43.89
2018-02-27T07:37:23.352Z,43.60
2018-02-27T07:39:49.298Z,42.43
2018-02-27T07:42:15.291Z,42.37
2018-02-27T07:44:41.309Z,42.89
2018-02-27T07:47:07.326Z,41.64
2018-02-27T07:49:33.307Z,42.90
2018-02-27T07:51:59.314Z,42.36
2018-02-27T07:54:25.260Z,42.35
2018-02-27T07:56:51.193Z,42.62
2018-02-27T07:59:17.195Z,42.23
2018-02-27T08:01:43.201Z,41.42
2018-02-27T08:04:09.217Z,42.87
2018-02-27T08:06:35.107Z,42.14
2018-02-27T08:09:01.066Z,41.90
2018-02-27T08:11:27.018Z,41.88
2018-02-27T08:13:52.974Z,41.89
2018-02-27T08:16:19.029Z,41.53
2018-02-27T08:18:45.077Z,42.28
2018-02-27T08:21:11.043Z,41.51
2018-02-27T08:23:37.028Z,41.71
2018-02-27T08:26:03.027Z,39.24
2018-02-27T08:28:28.974Z,40.21
2018-02-27T08:30:54.898Z,41.53
2018-02-27T08:33:20.981Z,40.41
2018-02-27T08:35:46.949Z,38.58
2018-02-27T08:38:12.910Z,39.92
2018-02-27T08:40:38.864Z,39.69
2018-02-27T08:43:05.015Z,40.13
2018-02-27T08:45:30.979Z,39.80
2018-02-27T08:47:56.922Z,38.92
2018-02-27T08:50:22.937Z,39.00
2018-02-27T08:52:48.906Z,38.94
2018-02-27T08:55:14.887Z,38.33
2018-02-27T08:57:40.838Z,38.55
2018-02-27T09:00:06.787Z,37.97
2018-02-27T09:02:32.735Z,38.37
2018-02-27T09:04:58.684Z,39.80
2018-02-27T09:07:24.643Z,39.61
2018-02-27T09:09:50.725Z,39.50
2018-02-27T09:12:16.667Z,39.81
2018-02-27T09:14:42.654Z,40.32
2018-02-27T09:17:08.574Z,39.09
2018-02-27T09:19:34.536Z,41.21
2018-02-27T09:22:00.487Z,40.49
2018-02-27T09:24:26.502Z,40.02
2018-02-27T09:26:52.463Z,39.73
2018-02-27T09:29:18.481Z,38.51
2018-02-27T09:31:44.428Z,37.92
2018-02-27T09:34:10.382Z,38.03
2018-02-27T09:36:36.369Z,37.62
2018-02-27T09:39:02.329Z,37.47
2018-02-27T09:41:28.341Z,37.53
2018-02-27T09:43:54.274Z,36.91
2018-02-27T09:46:20.243Z,35.92
2018-02-27T09:48:46.198Z,35.84
2018-02-27T09:51:12.188Z,35.85
2018-02-27T09:53:38.122Z,35.90
2018-02-27T09:56:04.069Z,35.84
2018-02-27T09:58:30.045Z,35.86
2018-02-27T10:00:56.027Z,36.43
2018-02-27T10:03:21.984Z,36.00
2018-02-27T10:05:47.932Z,35.95
2018-02-27T10:08:13.878Z,36.32
2018-02-27T10:10:39.813Z,36.51
2018-02-27T10:13:05.810Z,35.22
2018-02-27T10:15:31.751Z,35.64
2018-02-27T10:17:57.699Z,36.03
2018-02-27T10:20:23.655Z,36.65
2018-02-27T10:22:49.578Z,34.35
2018-02-27T10:25:15.521Z,34.66
2018-02-27T10:27:41.554Z,34.49
2018-02-27T10:30:07.511Z,33.92
2018-02-27T10:32:33.452Z,34.85
2018-02-27T10:34:59.402Z,34.68
2018-02-27T10:37:25.342Z,33.96
2018-02-27T10:39:51.297Z,34.85
2018-02-27T10:42:17.269Z,34.07
2018-02-27T10:44:43.198Z,33.74
2018-02-27T10:47:09.142Z,33.96
2018-02-27T10:49:35.145Z,33.98
2018-02-27T10:52:01.079Z,34.05
2018-02-27T10:54:27.371Z,34.45
2018-02-27T10:56:53.338Z,34.15
2018-02-27T10:59:19.269Z,34.03
2018-02-27T11:01:45.243Z,33.68
2018-02-27T11:04:11.170Z,35.21
2018-02-27T11:06:37.161Z,34.04
2018-02-27T11:09:03.106Z,33.97
2018-02-27T11:11:29.071Z,33.63
2018-02-27T11:13:55.003Z,33.97
2018-02-27T11:16:20.971Z,34.46
2018-02-27T11:18:47.277Z,34.67
2018-02-27T11:21:13.219Z,34.26
2018-02-27T11:23:39.175Z,34.10
2018-02-27T11:26:05.211Z,33.57
2018-02-27T11:28:31.186Z,34.09
2018-02-27T11:30:57.127Z,33.57
2018-02-27T11:33:23.063Z,33.54
2018-02-27T11:35:48.998Z,34.21
2018-02-27T11:38:14.939Z,34.31
2018-02-27T11:40:40.872Z,35.16
2018-02-27T11:43:06.863Z,35.19
2018-02-27T11:45:32.803Z,34.28
2018-02-27T11:47:58.740Z,34.68
2018-02-27T11:50:24.842Z,35.21
2018-02-27T11:52:50.791Z,34.82
2018-02-27T11:55:16.743Z,34.53
2018-02-27T11:57:42.709Z,34.80
2018-02-27T12:00:08.706Z,33.96
2018-02-27T12:02:34.697Z,34.06
2018-02-27T12:05:00.650Z,33.73
2018-02-27T12:07:26.583Z,33.92
2018-02-27T12:09:52.607Z,33.60
2018-02-27T12:12:18.555Z,33.38
2018-02-27T12:14:44.556Z,34.15
2018-02-27T12:17:10.529Z,34.88
2018-02-27T12:19:36.474Z,34.55
2018-02-27T12:22:02.423Z,35.00
2018-02-27T12:24:28.383Z,34.98
2018-02-27T12:26:54.326Z,34.73
2018-02-27T12:29:20.326Z,34.30
2018-02-27T12:31:46.229Z,34.68
2018-02-27T12:34:12.177Z,34.23
2018-02-27T12:36:38.107Z,33.45
2018-02-27T12:39:04.081Z,33.29
2018-02-27T12:41:30.017Z,33.54
2018-02-27T12:43:55.973Z,33.55
2018-02-27T12:46:21.900Z,33.91
2018-02-27T12:48:47.870Z,33.57
2018-02-27T12:51:13.856Z,33.79
2018-02-27T12:53:39.814Z,33.51
2018-02-27T12:56:05.764Z,33.49
2018-02-27T12:58:31.755Z,33.83
2018-02-27T13:00:57.713Z,33.87
2018-02-27T13:03:23.674Z,34.31
2018-02-27T13:05:49.612Z,33.94
2018-02-27T13:08:15.567Z,33.85
2018-02-27T13:10:41.531Z,33.52
2018-02-27T13:13:07.491Z,34.16
2018-02-27T13:15:33.444Z,34.69
2018-02-27T13:17:59.440Z,33.71
2018-02-27T13:20:25.370Z,32.81
2018-02-27T13:22:51.306Z,32.68
2018-02-27T13:25:17.246Z,33.03
2018-02-27T13:27:43.214Z,32.91
2018-02-27T13:30:09.145Z,32.66
2018-02-27T13:32:35.178Z,33.33
2018-02-27T13:35:01.070Z,32.60
2018-02-27T13:37:26.995Z,32.82
2018-02-27T13:39:52.954Z,32.57
2018-02-27T13:42:18.930Z,32.59
2018-02-27T13:44:44.932Z,32.73
2018-02-27T13:47:10.900Z,33.32
2018-02-27T13:49:36.876Z,32.95
2018-02-27T13:52:02.830Z,32.54
2018-02-27T13:54:28.830Z,32.65
2018-02-27T13:56:54.802Z,32.51
2018-02-27T13:59:20.751Z,32.31
2018-02-27T14:01:46.729Z,33.84
2018-02-27T14:04:12.681Z,33.53
2018-02-27T14:06:38.622Z,33.00
2018-02-27T14:09:04.572Z,32.91
2018-02-27T14:11:30.608Z,33.31
2018-02-27T14:13:56.550Z,32.88
2018-02-27T14:16:22.499Z,32.61
2018-02-27T14:18:48.462Z,32.23
2018-02-27T14:21:14.408Z,32.62
2018-02-27T14:23:40.359Z,33.16
2018-02-27T14:26:06.319Z,32.60
2018-02-27T14:28:32.288Z,32.09
2018-02-27T14:30:59.306Z,32.43
2018-02-27T14:33:25.374Z,33.12
2018-02-27T14:35:51.365Z,32.59
2018-02-27T14:38:17.337Z,32.56
2018-02-27T14:40:43.277Z,32.63
2018-02-27T14:43:09.226Z,32.07
2018-02-27T14:45:35.178Z,32.19
2018-02-27T14:48:01.133Z,32.43
2018-02-27T14:50:27.072Z,32.51
2018-02-27T14:52:53.011Z,32.30
2018-02-27T14:55:18.977Z,32.24
2018-02-27T14:57:44.957Z,33.02
2018-02-27T15:00:10.919Z,33.25
2018-02-27T15:02:36.870Z,32.92
2018-02-27T15:05:02.842Z,32.26
2018-02-27T15:07:28.853Z,31.92
2018-02-27T15:09:54.790Z,36.00
2018-02-27T15:12:20.741Z,32.38
2018-02-27T15:14:46.733Z,32.36
2018-02-27T15:17:12.690Z,32.44
2018-02-27T15:19:38.629Z,32.60
2018-02-27T15:22:04.611Z,32.26
2018-02-27T15:24:30.638Z,31.85
2018-02-27T15:26:56.601Z,32.79
2018-02-27T15:29:22.547Z,32.28
2018-02-27T15:31:48.573Z,32.08
2018-02-27T15:34:14.511Z,32.19
2018-02-27T15:36:40.484Z,32.98
2018-02-27T15:39:06.438Z,33.45
2018-02-27T15:41:32.403Z,33.25
2018-02-27T15:43:58.390Z,32.75
2018-02-27T15:46:24.363Z,32.80
2018-02-27T15:48:50.319Z,32.48
2018-02-27T15:51:16.298Z,32.74
2018-02-27T15:53:42.269Z,32.68
2018-02-27T15:56:08.231Z,32.61
2018-02-27T15:58:34.185Z,32.38
2018-02-27T16:01:00.184Z,32.76
2018-02-27T16:03:26.149Z,33.08
2018-02-27T16:05:52.186Z,33.10
2018-02-27T16:08:18.163Z,33.60
2018-02-27T16:10:44.428Z,33.92
2018-02-27T16:13:10.373Z,34.18
2018-02-27T16:15:36.375Z,33.93
2018-02-27T16:18:02.435Z,33.80
2018-02-27T16:20:28.442Z,33.80
2018-02-27T16:22:54.391Z,33.60
2018-02-27T16:25:20.323Z,34.90
2018-02-27T16:27:46.283Z,33.89
2018-02-27T16:30:12.239Z,33.70
2018-02-27T16:32:38.173Z,34.21
2018-02-27T16:35:04.178Z,34.22
2018-02-27T16:37:30.203Z,34.44
2018-02-27T16:39:56.164Z,34.18
2018-02-27T16:42:22.107Z,34.31
2018-02-27T16:44:48.097Z,34.46
2018-02-27T16:47:14.040Z,33.94
2018-02-27T16:49:39.999Z,34.22
2018-02-27T16:52:06.017Z,34.50
2018-02-27T16:54:32.106Z,34.27
2018-02-27T16:56:58.074Z,34.43
2018-02-27T16:59:24.139Z,34.21
2018-02-27T17:01:50.216Z,34.66
2018-02-27T17:04:16.169Z,34.95
2018-02-27T17:06:42.129Z,34.69
2018-02-27T17:09:08.100Z,34.59
2018-02-27T17:11:34.060Z,34.45
2018-02-27T17:14:00.012Z,34.24
2018-02-27T17:16:25.948Z,34.21
2018-02-27T17:18:51.962Z,38.16
2018-02-27T17:21:17.904Z,38.24
2018-02-27T17:23:43.951Z,36.58
2018-02-27T17:26:09.954Z,35.76
2018-02-27T17:28:36.021Z,36.39
2018-02-27T17:31:01.995Z,35.74
2018-02-27T17:33:28.009Z,35.82
2018-02-27T17:35:53.980Z,35.21
2018-02-27T17:38:19.974Z,35.34
2018-02-27T17:40:45.934Z,35.81
2018-02-27T17:43:11.879Z,36.13
2018-02-27T17:45:37.820Z,35.55
2018-02-27T17:48:03.765Z,35.56
2018-02-27T17:50:29.720Z,35.81
2018-02-27T17:52:55.665Z,36.21
2018-02-27T17:55:21.638Z,35.90
2018-02-27T17:57:47.593Z,36.05
2018-02-27T18:00:13.588Z,35.52
2018-02-27T18:02:39.542Z,35.59
2018-02-27T18:05:05.480Z,35.65
2018-02-27T18:07:31.438Z,36.27
2018-02-27T18:09:57.410Z,36.28
2018-02-27T18:12:23.373Z,36.37
2018-02-27T18:14:49.338Z,35.60
2018-02-27T18:17:15.298Z,36.65
2018-02-27T18:19:41.272Z,36.22
2018-02-27T18:22:07.214Z,36.49
2018-02-27T18:24:33.216Z,36.84
2018-02-27T18:26:59.277Z,37.21
2018-02-27T18:29:25.304Z,37.12
2018-02-27T18:31:51.258Z,37.41
2018-02-27T18:34:17.251Z,36.35
2018-02-27T18:36:43.207Z,36.72
2018-02-27T18:39:09.172Z,36.93
2018-02-27T18:41:35.123Z,36.84
2018-02-27T18:44:01.277Z,36.78
2018-02-27T18:46:27.241Z,37.82
2018-02-27T18:48:53.474Z,37.12
2018-02-27T18:51:19.453Z,37.18
2018-02-27T18:53:45.385Z,37.31
2018-02-27T18:56:11.326Z,37.16
2018-02-27T18:58:37.294Z,38.06
2018-02-27T19:01:03.309Z,38.37
2018-02-27T19:03:29.315Z,37.59
2018-02-27T19:05:55.263Z,38.04
2018-02-27T19:08:21.208Z,38.57
2018-02-27T19:10:47.144Z,38.34
2018-02-27T19:13:13.120Z,38.58
2018-02-27T19:15:39.087Z,38.85
2018-02-27T19:18:05.040Z,38.31
2018-02-27T19:20:31.003Z,38.41
2018-02-27T19:22:56.973Z,37.77
2018-02-27T19:25:22.931Z,38.42
2018-02-27T19:27:48.907Z,38.54
2018-02-27T19:30:14.947Z,38.11
2018-02-27T19:32:40.927Z,38.29
2018-02-27T19:35:06.862Z,38.15
2018-02-27T19:37:32.882Z,38.12
2018-02-27T19:39:58.874Z,38.33
2018-02-27T19:42:24.835Z,37.65
2018-02-27T19:44:50.812Z,37.41
2018-02-27T19:47:16.774Z,37.46
2018-02-27T19:49:42.729Z,37.77
2018-02-27T19:52:08.720Z,38.07
2018-02-27T19:54:34.684Z,37.28
2018-02-27T19:57:00.644Z,37.60
2018-02-27T19:59:26.602Z,37.43
2018-02-27T20:01:52.545Z,41.17
2018-02-27T20:04:18.504Z,39.24
2018-02-27T20:06:45.495Z,38.01
2018-02-27T20:09:11.428Z,37.82
2018-02-27T20:11:37.398Z,38.65
2018-02-27T20:14:03.384Z,38.76
2018-02-27T20:16:29.423Z,38.31
2018-02-27T20:18:55.412Z,38.04
2018-02-27T20:21:21.386Z,38.58
2018-02-27T20:23:47.360Z,39.03
2018-02-27T20:26:13.316Z,38.76
2018-02-27T20:28:39.275Z,38.90
2018-02-27T20:31:05.232Z,39.39
2018-02-27T20:33:31.214Z,39.21
2018-02-27T20:35:57.195Z,38.80
2018-02-27T20:38:23.154Z,38.70
2018-02-27T20:40:49.165Z,39.53
2018-02-27T20:43:15.337Z,39.48
2018-02-27T20:45:41.308Z,39.48
2018-02-27T20:48:07.295Z,39.96
2018-02-27T20:50:33.342Z,38.84
2018-02-27T20:52:59.427Z,38.93
2018-02-27T20:55:25.426Z,38.47
2018-02-27T20:57:51.389Z,39.00
2018-02-27T21:00:17.487Z,38.89
2018-02-27T21:02:43.561Z,38.94
2018-02-27T21:05:09.537Z,39.33
2018-02-27T21:07:35.546Z,39.57
2018-02-27T21:10:01.500Z,39.60
2018-02-27T21:12:27.485Z,39.52
2018-02-27T21:14:53.439Z,39.25
2018-02-27T21:17:19.387Z,38.89
2018-02-27T21:19:45.360Z,39.02
2018-02-27T21:22:11.310Z,39.06
2018-02-27T21:24:37.264Z,39.06
2018-02-27T21:27:03.214Z,39.04
2018-02-27T21:29:29.164Z,38.89
2018-02-27T21:31:55.119Z,39.13
2018-02-27T21:34:21.072Z,39.37
2018-02-27T21:36:47.031Z,38.77
2018-02-27T21:39:13.022Z,39.19
2018-02-27T21:41:39.034Z,39.08
2018-02-27T21:44:05.000Z,39.05
2018-02-27T21:46:31.024Z,40.14
2018-02-27T21:48:57.010Z,40.22
2018-02-27T21:51:22.960Z,39.60
2018-02-27T21:53:49.942Z,40.76
2018-02-27T21:56:15.988Z,40.86
2018-02-27T21:58:41.984Z,40.83
2018-02-27T22:01:07.956Z,41.70
2018-02-27T22:03:33.906Z,41.07
2018-02-27T22:05:59.856Z,41.77
2018-02-27T22:08:26.849Z,42.23
2018-02-27T22:10:52.826Z,42.32
2018-02-27T22:13:18.846Z,42.80
2018-02-27T22:15:44.808Z,42.93
2018-02-27T22:18:10.775Z,44.26
2018-02-27T22:20:36.715Z,44.93
2018-02-27T22:23:03.585Z,45.20
2018-02-27T22:25:29.508Z,44.79
2018-02-27T22:27:55.446Z,44.11
2018-02-27T22:30:21.416Z,44.56
2018-02-27T22:32:47.365Z,45.12
2018-02-27T22:35:13.292Z,44.39
2018-02-27T22:37:39.214Z,44.23
2018-02-27T22:40:05.224Z,43.58
2018-02-27T22:42:31.168Z,44.95
2018-02-27T22:44:57.102Z,44.33
2018-02-27T22:47:23.069Z,42.89
2018-02-27T22:49:49.018Z,43.81
2018-02-27T22:52:14.952Z,44.10
2018-02-27T22:54:40.904Z,42.90
2018-02-27T22:57:06.834Z,44.43
2018-02-27T22:59:32.775Z,44.29
2018-02-27T23:01:58.734Z,45.10
2018-02-27T23:04:24.742Z,43.93
2018-02-27T23:06:50.694Z,44.92
2018-02-27T23:09:16.665Z,42.68
2018-02-27T23:11:42.615Z,43.01
2018-02-27T23:14:08.578Z,43.09
2018-02-27T23:16:34.514Z,43.04
2018-02-27T23:19:00.450Z,42.59
2018-02-27T23:21:26.406Z,42.71
2018-02-27T23:23:52.403Z,44.18
2018-02-27T23:26:18.356Z,44.09
2018-02-27T23:28:44.399Z,43.80
2018-02-27T23:31:10.326Z,43.55
2018-02-27T23:33:36.266Z,44.66
2018-02-27T23:36:02.206Z,45.48
2018-02-27T23:38:28.848Z,43.65
2018-02-27T23:40:54.799Z,44.78
2018-02-27T23:43:20.781Z,45.88
2018-02-27T23:45:46.746Z,45.20
2018-02-27T23:48:12.710Z,44.90
2018-02-27T23:50:38.642Z,44.71
2018-02-27T23:53:04.620Z,44.78
2018-02-27T23:55:30.543Z,45.06
2018-02-27T23:57:56.506Z,44.99
